sensor_id;sensor_type;location;lat;lon;timestamp;P1;durP1;ratioP1;P2;durP2;ratioP2
42260;SDS011;27926;48.062;7.474;2022-11-20T00:01:05;11.30;;;6.43;;
42260;SDS011;27926;48.062;7.474;2022-11-20T00:03:36;13.45;;;6.65;;
42260;SDS011;27926;48.062;7.474;2022-11-20T00:06:02;11.48;;;6.60;;
42260;SDS011;27926;48.062;7.474;2022-11-20T00:08:28;13.05;;;6.70;;
42260;SDS011;27926;48.062;7.474;2022-11-20T00:10:52;12.18;;;6.45;;
42260;SDS011;27926;48.062;7.474;2022-11-20T00:13:17;10.55;;;6.15;;
42260;SDS011;27926;48.062;7.474;2022-11-20T00:15:42;11.93;;;5.65;;
42260;SDS011;27926;48.062;7.474;2022-11-20T00:18:06;10.93;;;5.88;;
42260;SDS011;27926;48.062;7.474;2022-11-20T00:20:31;9.55;;;5.68;;
42260;SDS011;27926;48.062;7.474;2022-11-20T00:22:55;15.48;;;6.47;;
42260;SDS011;27926;48.062;7.474;2022-11-20T00:25:20;10.75;;;6.15;;
42260;SDS011;27926;48.062;7.474;2022-11-20T00:27:44;10.80;;;6.13;;
42260;SDS011;27926;48.062;7.474;2022-11-20T00:30:09;11.05;;;6.05;;
42260;SDS011;27926;48.062;7.474;2022-11-20T00:32:34;16.48;;;6.57;;
42260;SDS011;27926;48.062;7.474;2022-11-20T00:34:59;13.85;;;6.38;;
42260;SDS011;27926;48.062;7.474;2022-11-20T00:37:23;11.85;;;6.85;;
42260;SDS011;27926;48.062;7.474;2022-11-20T00:39:48;10.75;;;5.72;;
42260;SDS011;27926;48.062;7.474;2022-11-20T00:42:13;17.42;;;6.57;;
42260;SDS011;27926;48.062;7.474;2022-11-20T00:44:37;10.75;;;6.10;;
42260;SDS011;27926;48.062;7.474;2022-11-20T00:47:02;11.50;;;6.30;;
42260;SDS011;27926;48.062;7.474;2022-11-20T00:49:27;11.70;;;5.75;;
42260;SDS011;27926;48.062;7.474;2022-11-20T00:51:51;13.13;;;8.35;;
42260;SDS011;27926;48.062;7.474;2022-11-20T00:54:16;14.38;;;6.75;;
42260;SDS011;27926;48.062;7.474;2022-11-20T00:56:41;9.77;;;6.30;;
42260;SDS011;27926;48.062;7.474;2022-11-20T00:59:05;21.10;;;6.10;;
42260;SDS011;27926;48.062;7.474;2022-11-20T01:01:30;17.43;;;6.90;;
42260;SDS011;27926;48.062;7.474;2022-11-20T01:03:55;11.90;;;7.03;;
42260;SDS011;27926;48.062;7.474;2022-11-20T01:06:24;12.43;;;6.35;;
42260;SDS011;27926;48.062;7.474;2022-11-20T01:08:52;11.88;;;6.45;;
42260;SDS011;27926;48.062;7.474;2022-11-20T01:11:20;14.88;;;6.53;;
42260;SDS011;27926;48.062;7.474;2022-11-20T01:13:53;9.52;;;6.38;;
42260;SDS011;27926;48.062;7.474;2022-11-20T01:16:19;11.73;;;6.45;;
42260;SDS011;27926;48.062;7.474;2022-11-20T01:18:47;15.20;;;5.70;;
42260;SDS011;27926;48.062;7.474;2022-11-20T01:21:20;9.63;;;5.68;;
42260;SDS011;27926;48.062;7.474;2022-11-20T01:23:55;13.95;;;5.63;;
42260;SDS011;27926;48.062;7.474;2022-11-20T01:26:21;13.55;;;5.93;;
42260;SDS011;27926;48.062;7.474;2022-11-20T01:28:48;11.02;;;5.72;;
42260;SDS011;27926;48.062;7.474;2022-11-20T01:31:14;16.67;;;5.67;;
42260;SDS011;27926;48.062;7.474;2022-11-20T01:33:43;9.15;;;4.90;;
42260;SDS011;27926;48.062;7.474;2022-11-20T01:36:09;10.02;;;4.60;;
42260;SDS011;27926;48.062;7.474;2022-11-20T01:38:35;11.23;;;5.32;;
42260;SDS011;27926;48.062;7.474;2022-11-20T01:41:00;10.67;;;4.97;;
42260;SDS011;27926;48.062;7.474;2022-11-20T01:43:24;10.27;;;5.03;;
42260;SDS011;27926;48.062;7.474;2022-11-20T01:48:32;11.02;;;5.93;;
42260;SDS011;27926;48.062;7.474;2022-11-20T01:51:02;11.50;;;5.65;;
42260;SDS011;27926;48.062;7.474;2022-11-20T01:53:32;11.07;;;5.32;;
42260;SDS011;27926;48.062;7.474;2022-11-20T01:55:59;10.20;;;5.90;;
42260;SDS011;27926;48.062;7.474;2022-11-20T01:58:33;6.53;;;4.30;;
42260;SDS011;27926;48.062;7.474;2022-11-20T02:01:01;10.30;;;5.70;;
42260;SDS011;27926;48.062;7.474;2022-11-20T02:03:27;14.02;;;6.50;;
42260;SDS011;27926;48.062;7.474;2022-11-20T02:06:35;15.23;;;6.53;;
42260;SDS011;27926;48.062;7.474;2022-11-20T02:08:43;12.73;;;5.78;;
42260;SDS011;27926;48.062;7.474;2022-11-20T02:11:08;14.27;;;6.22;;
42260;SDS011;27926;48.062;7.474;2022-11-20T02:13:33;12.00;;;5.22;;
42260;SDS011;27926;48.062;7.474;2022-11-20T02:16:21;11.73;;;5.75;;
42260;SDS011;27926;48.062;7.474;2022-11-20T02:18:55;11.40;;;6.05;;
42260;SDS011;27926;48.062;7.474;2022-11-20T02:21:24;12.85;;;6.95;;
42260;SDS011;27926;48.062;7.474;2022-11-20T02:24:11;13.38;;;6.68;;
42260;SDS011;27926;48.062;7.474;2022-11-20T02:26:44;22.70;;;7.90;;
42260;SDS011;27926;48.062;7.474;2022-11-20T02:29:16;12.98;;;6.88;;
42260;SDS011;27926;48.062;7.474;2022-11-20T02:31:44;17.27;;;7.68;;
42260;SDS011;27926;48.062;7.474;2022-11-20T02:34:09;13.25;;;7.65;;
42260;SDS011;27926;48.062;7.474;2022-11-20T02:36:34;17.75;;;9.55;;
42260;SDS011;27926;48.062;7.474;2022-11-20T02:39:00;13.07;;;8.13;;
42260;SDS011;27926;48.062;7.474;2022-11-20T02:41:35;20.30;;;8.68;;
42260;SDS011;27926;48.062;7.474;2022-11-20T02:44:01;14.00;;;7.93;;
42260;SDS011;27926;48.062;7.474;2022-11-20T02:46:27;15.88;;;9.20;;
42260;SDS011;27926;48.062;7.474;2022-11-20T02:48:52;19.58;;;10.13;;
42260;SDS011;27926;48.062;7.474;2022-11-20T02:51:17;14.55;;;9.20;;
42260;SDS011;27926;48.062;7.474;2022-11-20T02:53:41;14.35;;;9.82;;
42260;SDS011;27926;48.062;7.474;2022-11-20T02:56:06;19.65;;;10.10;;
42260;SDS011;27926;48.062;7.474;2022-11-20T02:58:31;16.20;;;9.98;;
42260;SDS011;27926;48.062;7.474;2022-11-20T03:00:56;20.48;;;10.45;;
42260;SDS011;27926;48.062;7.474;2022-11-20T03:03:20;20.65;;;9.43;;
42260;SDS011;27926;48.062;7.474;2022-11-20T03:05:45;19.88;;;8.57;;
42260;SDS011;27926;48.062;7.474;2022-11-20T03:08:09;20.33;;;8.80;;
42260;SDS011;27926;48.062;7.474;2022-11-20T03:10:34;24.30;;;10.15;;
42260;SDS011;27926;48.062;7.474;2022-11-20T03:12:59;23.17;;;9.10;;
42260;SDS011;27926;48.062;7.474;2022-11-20T03:15:23;13.45;;;7.75;;
42260;SDS011;27926;48.062;7.474;2022-11-20T03:17:48;13.52;;;8.35;;
42260;SDS011;27926;48.062;7.474;2022-11-20T03:20:13;20.67;;;10.63;;
42260;SDS011;27926;48.062;7.474;2022-11-20T03:22:37;15.23;;;7.95;;
42260;SDS011;27926;48.062;7.474;2022-11-20T03:25:02;11.63;;;7.07;;
42260;SDS011;27926;48.062;7.474;2022-11-20T03:27:27;17.77;;;10.07;;
42260;SDS011;27926;48.062;7.474;2022-11-20T03:29:56;22.38;;;10.35;;
42260;SDS011;27926;48.062;7.474;2022-11-20T03:32:21;14.15;;;7.78;;
42260;SDS011;27926;48.062;7.474;2022-11-20T03:34:45;20.90;;;8.05;;
42260;SDS011;27926;48.062;7.474;2022-11-20T03:37:10;12.45;;;7.60;;
42260;SDS011;27926;48.062;7.474;2022-11-20T03:39:37;14.98;;;8.75;;
42260;SDS011;27926;48.062;7.474;2022-11-20T03:42:02;17.27;;;9.68;;
42260;SDS011;27926;48.062;7.474;2022-11-20T03:44:47;15.73;;;7.72;;
42260;SDS011;27926;48.062;7.474;2022-11-20T03:47:11;11.32;;;7.78;;
42260;SDS011;27926;48.062;7.474;2022-11-20T03:49:36;13.82;;;8.73;;
42260;SDS011;27926;48.062;7.474;2022-11-20T03:52:00;20.35;;;9.18;;
42260;SDS011;27926;48.062;7.474;2022-11-20T03:54:25;18.27;;;8.05;;
42260;SDS011;27926;48.062;7.474;2022-11-20T03:56:50;25.67;;;8.05;;
42260;SDS011;27926;48.062;7.474;2022-11-20T03:59:14;16.45;;;7.75;;
42260;SDS011;27926;48.062;7.474;2022-11-20T04:01:39;21.83;;;8.45;;
42260;SDS011;27926;48.062;7.474;2022-11-20T04:04:04;18.27;;;7.30;;
42260;SDS011;27926;48.062;7.474;2022-11-20T04:06:30;14.27;;;8.35;;
42260;SDS011;27926;48.062;7.474;2022-11-20T04:08:58;13.50;;;6.70;;
42260;SDS011;27926;48.062;7.474;2022-11-20T04:11:23;13.03;;;6.50;;
42260;SDS011;27926;48.062;7.474;2022-11-20T04:13:51;12.45;;;7.13;;
42260;SDS011;27926;48.062;7.474;2022-11-20T04:16:18;12.93;;;6.57;;
42260;SDS011;27926;48.062;7.474;2022-11-20T04:18:43;18.63;;;7.45;;
42260;SDS011;27926;48.062;7.474;2022-11-20T04:21:08;9.88;;;8.07;;
42260;SDS011;27926;48.062;7.474;2022-11-20T04:23:33;11.43;;;6.82;;
42260;SDS011;27926;48.062;7.474;2022-11-20T04:26:04;12.23;;;6.88;;
42260;SDS011;27926;48.062;7.474;2022-11-20T04:28:34;20.33;;;7.40;;
42260;SDS011;27926;48.062;7.474;2022-11-20T04:33:27;8.45;;;5.15;;
42260;SDS011;27926;48.062;7.474;2022-11-20T04:35:52;9.93;;;6.15;;
42260;SDS011;27926;48.062;7.474;2022-11-20T04:38:17;6.90;;;4.18;;
42260;SDS011;27926;48.062;7.474;2022-11-20T04:40:41;11.57;;;5.15;;
42260;SDS011;27926;48.062;7.474;2022-11-20T04:43:06;15.43;;;4.65;;
42260;SDS011;27926;48.062;7.474;2022-11-20T04:45:30;8.43;;;4.53;;
42260;SDS011;27926;48.062;7.474;2022-11-20T04:47:55;4.70;;;3.28;;
42260;SDS011;27926;48.062;7.474;2022-11-20T04:50:19;6.70;;;4.40;;
42260;SDS011;27926;48.062;7.474;2022-11-20T04:52:44;4.95;;;3.88;;
42260;SDS011;27926;48.062;7.474;2022-11-20T04:55:09;9.18;;;4.90;;
42260;SDS011;27926;48.062;7.474;2022-11-20T04:57:33;5.30;;;4.43;;
42260;SDS011;27926;48.062;7.474;2022-11-20T04:59:58;5.72;;;4.05;;
42260;SDS011;27926;48.062;7.474;2022-11-20T05:02:22;4.40;;;2.75;;
42260;SDS011;27926;48.062;7.474;2022-11-20T05:04:47;6.53;;;5.07;;
42260;SDS011;27926;48.062;7.474;2022-11-20T05:07:12;5.85;;;2.30;;
42260;SDS011;27926;48.062;7.474;2022-11-20T05:09:37;8.50;;;3.13;;
42260;SDS011;27926;48.062;7.474;2022-11-20T05:12:01;12.60;;;3.45;;
42260;SDS011;27926;48.062;7.474;2022-11-20T05:14:26;4.90;;;2.35;;
42260;SDS011;27926;48.062;7.474;2022-11-20T05:16:50;8.00;;;3.05;;
42260;SDS011;27926;48.062;7.474;2022-11-20T05:19:15;3.25;;;2.53;;
42260;SDS011;27926;48.062;7.474;2022-11-20T05:21:40;4.53;;;2.28;;
42260;SDS011;27926;48.062;7.474;2022-11-20T05:24:04;3.85;;;2.97;;
42260;SDS011;27926;48.062;7.474;2022-11-20T05:26:29;8.90;;;2.78;;
42260;SDS011;27926;48.062;7.474;2022-11-20T05:28:54;6.25;;;3.05;;
42260;SDS011;27926;48.062;7.474;2022-11-20T05:31:22;5.05;;;3.30;;
42260;SDS011;27926;48.062;7.474;2022-11-20T05:33:48;4.07;;;2.75;;
42260;SDS011;27926;48.062;7.474;2022-11-20T05:36:13;5.45;;;3.42;;
42260;SDS011;27926;48.062;7.474;2022-11-20T05:38:39;4.97;;;2.65;;
42260;SDS011;27926;48.062;7.474;2022-11-20T05:43:37;4.07;;;2.60;;
42260;SDS011;27926;48.062;7.474;2022-11-20T05:46:04;6.32;;;3.53;;
42260;SDS011;27926;48.062;7.474;2022-11-20T05:48:30;7.03;;;3.83;;
42260;SDS011;27926;48.062;7.474;2022-11-20T05:50:56;7.43;;;3.50;;
42260;SDS011;27926;48.062;7.474;2022-11-20T05:53:22;4.97;;;3.00;;
42260;SDS011;27926;48.062;7.474;2022-11-20T05:55:46;6.68;;;3.53;;
42260;SDS011;27926;48.062;7.474;2022-11-20T05:58:23;16.67;;;5.35;;
42260;SDS011;27926;48.062;7.474;2022-11-20T06:00:48;16.38;;;4.40;;
42260;SDS011;27926;48.062;7.474;2022-11-20T06:03:13;5.90;;;4.38;;
42260;SDS011;27926;48.062;7.474;2022-11-20T06:05:37;9.35;;;4.53;;
42260;SDS011;27926;48.062;7.474;2022-11-20T06:08:02;11.02;;;4.60;;
42260;SDS011;27926;48.062;7.474;2022-11-20T06:10:26;5.63;;;3.65;;
42260;SDS011;27926;48.062;7.474;2022-11-20T06:12:51;4.97;;;3.70;;
42260;SDS011;27926;48.062;7.474;2022-11-20T06:15:16;8.20;;;3.35;;
42260;SDS011;27926;48.062;7.474;2022-11-20T06:17:40;6.35;;;3.92;;
42260;SDS011;27926;48.062;7.474;2022-11-20T06:20:05;6.13;;;3.55;;
42260;SDS011;27926;48.062;7.474;2022-11-20T06:22:30;5.83;;;3.50;;
42260;SDS011;27926;48.062;7.474;2022-11-20T06:27:20;7.30;;;3.50;;
42260;SDS011;27926;48.062;7.474;2022-11-20T06:29:45;14.25;;;4.00;;
42260;SDS011;27926;48.062;7.474;2022-11-20T06:32:10;6.35;;;3.88;;
42260;SDS011;27926;48.062;7.474;2022-11-20T06:34:34;6.35;;;3.70;;
42260;SDS011;27926;48.062;7.474;2022-11-20T06:36:59;7.20;;;3.97;;
42260;SDS011;27926;48.062;7.474;2022-11-20T06:39:23;8.55;;;3.45;;
42260;SDS011;27926;48.062;7.474;2022-11-20T06:41:48;7.82;;;3.90;;
42260;SDS011;27926;48.062;7.474;2022-11-20T06:44:13;9.55;;;4.70;;
42260;SDS011;27926;48.062;7.474;2022-11-20T06:46:38;17.45;;;4.60;;
42260;SDS011;27926;48.062;7.474;2022-11-20T06:49:02;5.53;;;3.80;;
42260;SDS011;27926;48.062;7.474;2022-11-20T06:51:27;4.25;;;2.97;;
42260;SDS011;27926;48.062;7.474;2022-11-20T06:53:52;7.78;;;3.63;;
42260;SDS011;27926;48.062;7.474;2022-11-20T06:56:17;8.05;;;3.97;;
42260;SDS011;27926;48.062;7.474;2022-11-20T06:58:42;6.82;;;3.25;;
42260;SDS011;27926;48.062;7.474;2022-11-20T07:01:07;7.85;;;3.20;;
42260;SDS011;27926;48.062;7.474;2022-11-20T07:03:34;6.22;;;3.83;;
42260;SDS011;27926;48.062;7.474;2022-11-20T07:06:00;7.95;;;3.90;;
42260;SDS011;27926;48.062;7.474;2022-11-20T07:08:26;4.72;;;3.70;;
42260;SDS011;27926;48.062;7.474;2022-11-20T07:10:51;4.23;;;3.00;;
42260;SDS011;27926;48.062;7.474;2022-11-20T07:13:16;5.35;;;3.72;;
42260;SDS011;27926;48.062;7.474;2022-11-20T07:15:40;7.00;;;3.75;;
42260;SDS011;27926;48.062;7.474;2022-11-20T07:18:05;10.45;;;4.10;;
42260;SDS011;27926;48.062;7.474;2022-11-20T07:20:29;5.68;;;3.42;;
42260;SDS011;27926;48.062;7.474;2022-11-20T07:22:55;7.25;;;4.03;;
42260;SDS011;27926;48.062;7.474;2022-11-20T07:25:21;7.95;;;4.60;;
42260;SDS011;27926;48.062;7.474;2022-11-20T07:27:46;6.03;;;4.05;;
42260;SDS011;27926;48.062;7.474;2022-11-20T07:30:14;14.70;;;4.95;;
42260;SDS011;27926;48.062;7.474;2022-11-20T07:32:39;8.80;;;3.55;;
42260;SDS011;27926;48.062;7.474;2022-11-20T07:35:04;8.70;;;4.55;;
42260;SDS011;27926;48.062;7.474;2022-11-20T07:37:29;6.82;;;4.70;;
42260;SDS011;27926;48.062;7.474;2022-11-20T07:39:53;5.97;;;4.20;;
42260;SDS011;27926;48.062;7.474;2022-11-20T07:42:18;7.38;;;4.47;;
42260;SDS011;27926;48.062;7.474;2022-11-20T07:44:43;18.15;;;3.90;;
42260;SDS011;27926;48.062;7.474;2022-11-20T07:47:07;11.70;;;5.07;;
42260;SDS011;27926;48.062;7.474;2022-11-20T07:49:32;10.35;;;4.43;;
42260;SDS011;27926;48.062;7.474;2022-11-20T07:51:57;9.68;;;5.22;;
42260;SDS011;27926;48.062;7.474;2022-11-20T07:54:22;9.13;;;4.78;;
42260;SDS011;27926;48.062;7.474;2022-11-20T07:56:47;19.13;;;13.27;;
42260;SDS011;27926;48.062;7.474;2022-11-20T07:59:12;9.70;;;5.80;;
42260;SDS011;27926;48.062;7.474;2022-11-20T08:01:37;11.13;;;6.22;;
42260;SDS011;27926;48.062;7.474;2022-11-20T08:04:02;7.55;;;4.53;;
42260;SDS011;27926;48.062;7.474;2022-11-20T08:06:27;9.15;;;4.72;;
42260;SDS011;27926;48.062;7.474;2022-11-20T08:08:52;10.80;;;4.78;;
42260;SDS011;27926;48.062;7.474;2022-11-20T08:11:16;8.57;;;5.60;;
42260;SDS011;27926;48.062;7.474;2022-11-20T08:13:59;18.90;;;5.47;;
42260;SDS011;27926;48.062;7.474;2022-11-20T08:16:41;9.05;;;4.70;;
42260;SDS011;27926;48.062;7.474;2022-11-20T08:19:07;8.75;;;4.93;;
42260;SDS011;27926;48.062;7.474;2022-11-20T08:21:32;12.57;;;4.47;;
42260;SDS011;27926;48.062;7.474;2022-11-20T08:23:57;8.05;;;4.97;;
42260;SDS011;27926;48.062;7.474;2022-11-20T08:26:22;10.27;;;4.97;;
42260;SDS011;27926;48.062;7.474;2022-11-20T08:28:47;16.50;;;4.45;;
42260;SDS011;27926;48.062;7.474;2022-11-20T08:31:11;6.28;;;4.10;;
42260;SDS011;27926;48.062;7.474;2022-11-20T08:33:36;9.60;;;3.75;;
42260;SDS011;27926;48.062;7.474;2022-11-20T08:36:01;10.18;;;3.47;;
42260;SDS011;27926;48.062;7.474;2022-11-20T08:40:57;11.82;;;3.50;;
42260;SDS011;27926;48.062;7.474;2022-11-20T08:43:41;6.47;;;3.40;;
42260;SDS011;27926;48.062;7.474;2022-11-20T08:46:06;6.68;;;3.85;;
42260;SDS011;27926;48.062;7.474;2022-11-20T08:48:30;13.48;;;3.70;;
42260;SDS011;27926;48.062;7.474;2022-11-20T08:50:57;6.47;;;2.97;;
42260;SDS011;27926;48.062;7.474;2022-11-20T08:53:23;6.15;;;3.45;;
42260;SDS011;27926;48.062;7.474;2022-11-20T08:55:47;5.80;;;3.65;;
42260;SDS011;27926;48.062;7.474;2022-11-20T08:58:12;8.80;;;4.57;;
42260;SDS011;27926;48.062;7.474;2022-11-20T09:00:36;10.15;;;3.90;;
42260;SDS011;27926;48.062;7.474;2022-11-20T09:03:01;6.28;;;3.58;;
42260;SDS011;27926;48.062;7.474;2022-11-20T09:05:26;7.05;;;3.22;;
42260;SDS011;27926;48.062;7.474;2022-11-20T09:07:51;8.10;;;3.40;;
42260;SDS011;27926;48.062;7.474;2022-11-20T09:10:16;8.05;;;2.65;;
42260;SDS011;27926;48.062;7.474;2022-11-20T09:12:40;8.95;;;3.40;;
42260;SDS011;27926;48.062;7.474;2022-11-20T09:15:05;3.40;;;2.33;;
42260;SDS011;27926;48.062;7.474;2022-11-20T09:17:30;5.88;;;2.95;;
42260;SDS011;27926;48.062;7.474;2022-11-20T09:19:54;5.70;;;2.72;;
42260;SDS011;27926;48.062;7.474;2022-11-20T09:22:19;8.27;;;2.80;;
42260;SDS011;27926;48.062;7.474;2022-11-20T09:24:44;4.15;;;2.42;;
42260;SDS011;27926;48.062;7.474;2022-11-20T09:27:08;2.85;;;2.13;;
42260;SDS011;27926;48.062;7.474;2022-11-20T09:29:33;3.47;;;2.20;;
42260;SDS011;27926;48.062;7.474;2022-11-20T09:31:57;4.60;;;2.40;;
42260;SDS011;27926;48.062;7.474;2022-11-20T09:34:22;3.92;;;2.33;;
42260;SDS011;27926;48.062;7.474;2022-11-20T09:36:46;3.13;;;2.05;;
42260;SDS011;27926;48.062;7.474;2022-11-20T09:39:11;3.17;;;2.03;;
42260;SDS011;27926;48.062;7.474;2022-11-20T09:41:40;1.95;;;1.42;;
42260;SDS011;27926;48.062;7.474;2022-11-20T09:47:12;5.70;;;1.65;;
42260;SDS011;27926;48.062;7.474;2022-11-20T09:55:40;8.32;;;1.80;;
42260;SDS011;27926;48.062;7.474;2022-11-20T09:58:07;4.65;;;1.85;;
42260;SDS011;27926;48.062;7.474;2022-11-20T10:00:37;3.75;;;1.25;;
42260;SDS011;27926;48.062;7.474;2022-11-20T10:03:03;9.18;;;1.80;;
42260;SDS011;27926;48.062;7.474;2022-11-20T10:05:50;2.78;;;1.83;;
42260;SDS011;27926;48.062;7.474;2022-11-20T10:11:00;4.70;;;1.88;;
42260;SDS011;27926;48.062;7.474;2022-11-20T10:13:48;2.70;;;1.58;;
42260;SDS011;27926;48.062;7.474;2022-11-20T10:19:06;3.20;;;1.80;;
42260;SDS011;27926;48.062;7.474;2022-11-20T10:27:54;3.78;;;1.73;;
42260;SDS011;27926;48.062;7.474;2022-11-20T10:30:27;2.50;;;1.48;;
42260;SDS011;27926;48.062;7.474;2022-11-20T10:32:54;3.30;;;1.60;;
42260;SDS011;27926;48.062;7.474;2022-11-20T10:35:28;6.03;;;1.73;;
42260;SDS011;27926;48.062;7.474;2022-11-20T10:38:03;2.65;;;1.58;;
42260;SDS011;27926;48.062;7.474;2022-11-20T10:40:51;2.55;;;1.67;;
42260;SDS011;27926;48.062;7.474;2022-11-20T10:43:43;2.45;;;1.13;;
42260;SDS011;27926;48.062;7.474;2022-11-20T10:46:10;6.63;;;1.42;;
42260;SDS011;27926;48.062;7.474;2022-11-20T10:48:39;5.63;;;1.60;;
42260;SDS011;27926;48.062;7.474;2022-11-20T10:56:48;1.15;;;0.60;;
42260;SDS011;27926;48.062;7.474;2022-11-20T11:02:01;2.10;;;0.60;;
42260;SDS011;27926;48.062;7.474;2022-11-20T11:07:15;3.22;;;0.50;;
42260;SDS011;27926;48.062;7.474;2022-11-20T11:09:46;2.33;;;0.60;;
42260;SDS011;27926;48.062;7.474;2022-11-20T11:12:13;1.58;;;0.75;;
42260;SDS011;27926;48.062;7.474;2022-11-20T11:14:45;1.23;;;0.75;;
42260;SDS011;27926;48.062;7.474;2022-11-20T11:17:22;0.77;;;0.65;;
42260;SDS011;27926;48.062;7.474;2022-11-20T11:22:31;1.25;;;0.60;;
42260;SDS011;27926;48.062;7.474;2022-11-20T11:24:58;2.45;;;0.70;;
42260;SDS011;27926;48.062;7.474;2022-11-20T11:27:23;1.60;;;0.90;;
42260;SDS011;27926;48.062;7.474;2022-11-20T11:29:47;4.38;;;2.10;;
42260;SDS011;27926;48.062;7.474;2022-11-20T11:32:19;3.60;;;1.10;;
42260;SDS011;27926;48.062;7.474;2022-11-20T11:34:57;1.88;;;0.70;;
42260;SDS011;27926;48.062;7.474;2022-11-20T11:37:26;1.25;;;0.82;;
42260;SDS011;27926;48.062;7.474;2022-11-20T11:39:56;1.17;;;0.43;;
42260;SDS011;27926;48.062;7.474;2022-11-20T11:42:21;1.98;;;0.47;;
42260;SDS011;27926;48.062;7.474;2022-11-20T11:44:46;0.52;;;0.52;;
42260;SDS011;27926;48.062;7.474;2022-11-20T11:47:35;2.70;;;0.82;;
42260;SDS011;27926;48.062;7.474;2022-11-20T11:52:44;1.95;;;0.50;;
42260;SDS011;27926;48.062;7.474;2022-11-20T11:55:18;3.65;;;1.05;;
42260;SDS011;27926;48.062;7.474;2022-11-20T12:00:41;2.28;;;0.50;;
42260;SDS011;27926;48.062;7.474;2022-11-20T12:03:17;2.08;;;0.47;;
42260;SDS011;27926;48.062;7.474;2022-11-20T12:05:59;3.08;;;0.80;;
42260;SDS011;27926;48.062;7.474;2022-11-20T12:08:43;5.47;;;0.82;;
42260;SDS011;27926;48.062;7.474;2022-11-20T12:11:40;6.07;;;0.65;;
42260;SDS011;27926;48.062;7.474;2022-11-20T12:14:14;3.60;;;0.40;;
42260;SDS011;27926;48.062;7.474;2022-11-20T12:16:47;3.28;;;0.60;;
42260;SDS011;27926;48.062;7.474;2022-11-20T12:19:12;4.70;;;0.60;;
42260;SDS011;27926;48.062;7.474;2022-11-20T12:35:55;1.52;;;0.40;;
42260;SDS011;27926;48.062;7.474;2022-11-20T12:52:47;3.60;;;0.57;;
42260;SDS011;27926;48.062;7.474;2022-11-20T12:58:27;2.10;;;0.40;;
42260;SDS011;27926;48.062;7.474;2022-11-20T13:01:02;3.78;;;0.70;;
42260;SDS011;27926;48.062;7.474;2022-11-20T13:06:40;3.88;;;0.60;;
42260;SDS011;27926;48.062;7.474;2022-11-20T13:09:06;4.70;;;0.60;;
42260;SDS011;27926;48.062;7.474;2022-11-20T13:11:41;2.50;;;0.82;;
42260;SDS011;27926;48.062;7.474;2022-11-20T13:14:50;2.85;;;0.70;;
42260;SDS011;27926;48.062;7.474;2022-11-20T13:17:11;2.78;;;0.82;;
42260;SDS011;27926;48.062;7.474;2022-11-20T13:19:49;3.90;;;0.82;;
42260;SDS011;27926;48.062;7.474;2022-11-20T13:22:25;4.50;;;1.20;;
42260;SDS011;27926;48.062;7.474;2022-11-20T13:24:51;4.95;;;1.20;;
42260;SDS011;27926;48.062;7.474;2022-11-20T13:27:17;7.00;;;1.57;;
42260;SDS011;27926;48.062;7.474;2022-11-20T13:29:58;2.75;;;1.10;;
42260;SDS011;27926;48.062;7.474;2022-11-20T13:32:24;1.98;;;0.60;;
42260;SDS011;27926;48.062;7.474;2022-11-20T13:34:59;2.80;;;0.73;;
42260;SDS011;27926;48.062;7.474;2022-11-20T13:42:38;2.00;;;0.77;;
42260;SDS011;27926;48.062;7.474;2022-11-20T13:45:26;3.90;;;0.80;;
42260;SDS011;27926;48.062;7.474;2022-11-20T13:47:53;3.15;;;0.60;;
42260;SDS011;27926;48.062;7.474;2022-11-20T13:50:18;2.47;;;0.80;;
42260;SDS011;27926;48.062;7.474;2022-11-20T13:52:55;4.68;;;0.90;;
42260;SDS011;27926;48.062;7.474;2022-11-20T13:55:54;1.40;;;0.75;;
42260;SDS011;27926;48.062;7.474;2022-11-20T13:58:27;1.30;;;0.70;;
42260;SDS011;27926;48.062;7.474;2022-11-20T14:04:06;3.80;;;1.13;;
42260;SDS011;27926;48.062;7.474;2022-11-20T14:06:42;3.33;;;1.10;;
42260;SDS011;27926;48.062;7.474;2022-11-20T14:09:12;7.57;;;1.42;;
42260;SDS011;27926;48.062;7.474;2022-11-20T14:11:50;10.43;;;1.00;;
42260;SDS011;27926;48.062;7.474;2022-11-20T14:14:18;6.35;;;1.05;;
42260;SDS011;27926;48.062;7.474;2022-11-20T14:16:45;5.63;;;1.20;;
42260;SDS011;27926;48.062;7.474;2022-11-20T14:21:43;1.67;;;0.93;;
42260;SDS011;27926;48.062;7.474;2022-11-20T14:24:10;8.82;;;1.40;;
42260;SDS011;27926;48.062;7.474;2022-11-20T14:26:36;10.88;;;1.02;;
42260;SDS011;27926;48.062;7.474;2022-11-20T14:29:05;5.00;;;1.05;;
42260;SDS011;27926;48.062;7.474;2022-11-20T14:31:29;1.17;;;0.90;;
42260;SDS011;27926;48.062;7.474;2022-11-20T14:33:54;3.63;;;1.30;;
42260;SDS011;27926;48.062;7.474;2022-11-20T14:36:21;7.25;;;1.30;;
42260;SDS011;27926;48.062;7.474;2022-11-20T14:38:47;3.92;;;1.02;;
42260;SDS011;27926;48.062;7.474;2022-11-20T14:41:16;2.25;;;0.95;;
42260;SDS011;27926;48.062;7.474;2022-11-20T14:43:45;2.08;;;0.90;;
42260;SDS011;27926;48.062;7.474;2022-11-20T14:46:11;5.18;;;1.10;;
42260;SDS011;27926;48.062;7.474;2022-11-20T14:48:38;2.08;;;0.73;;
42260;SDS011;27926;48.062;7.474;2022-11-20T14:51:11;3.50;;;0.80;;
42260;SDS011;27926;48.062;7.474;2022-11-20T14:56:11;4.20;;;1.00;;
42260;SDS011;27926;48.062;7.474;2022-11-20T14:58:36;5.00;;;1.23;;
42260;SDS011;27926;48.062;7.474;2022-11-20T15:01:02;4.35;;;1.08;;
42260;SDS011;27926;48.062;7.474;2022-11-20T15:03:34;2.55;;;0.80;;
42260;SDS011;27926;48.062;7.474;2022-11-20T15:06:00;3.33;;;1.10;;
42260;SDS011;27926;48.062;7.474;2022-11-20T15:08:26;3.08;;;1.02;;
42260;SDS011;27926;48.062;7.474;2022-11-20T15:10:51;3.17;;;1.10;;
42260;SDS011;27926;48.062;7.474;2022-11-20T15:15:56;3.13;;;1.00;;
42260;SDS011;27926;48.062;7.474;2022-11-20T15:18:23;6.43;;;0.82;;
42260;SDS011;27926;48.062;7.474;2022-11-20T15:20:52;4.50;;;1.10;;
42260;SDS011;27926;48.062;7.474;2022-11-20T15:23:20;7.55;;;1.55;;
42260;SDS011;27926;48.062;7.474;2022-11-20T15:25:46;5.00;;;1.00;;
42260;SDS011;27926;48.062;7.474;2022-11-20T15:30:56;7.68;;;1.52;;
42260;SDS011;27926;48.062;7.474;2022-11-20T15:33:21;4.43;;;0.90;;
42260;SDS011;27926;48.062;7.474;2022-11-20T15:35:45;5.45;;;1.48;;
42260;SDS011;27926;48.062;7.474;2022-11-20T15:38:10;4.82;;;1.00;;
42260;SDS011;27926;48.062;7.474;2022-11-20T15:40:35;6.88;;;1.30;;
42260;SDS011;27926;48.062;7.474;2022-11-20T15:43:00;4.65;;;2.28;;
42260;SDS011;27926;48.062;7.474;2022-11-20T15:45:28;3.08;;;1.85;;
42260;SDS011;27926;48.062;7.474;2022-11-20T15:48:04;3.63;;;1.48;;
42260;SDS011;27926;48.062;7.474;2022-11-20T15:50:37;3.13;;;1.77;;
42260;SDS011;27926;48.062;7.474;2022-11-20T15:53:07;8.70;;;1.63;;
42260;SDS011;27926;48.062;7.474;2022-11-20T15:55:33;6.82;;;1.77;;
42260;SDS011;27926;48.062;7.474;2022-11-20T15:57:57;8.15;;;1.50;;
42260;SDS011;27926;48.062;7.474;2022-11-20T16:00:22;3.65;;;1.45;;
42260;SDS011;27926;48.062;7.474;2022-11-20T16:02:48;4.10;;;1.42;;
42260;SDS011;27926;48.062;7.474;2022-11-20T16:05:12;4.60;;;1.13;;
42260;SDS011;27926;48.062;7.474;2022-11-20T16:07:38;6.10;;;1.30;;
42260;SDS011;27926;48.062;7.474;2022-11-20T16:10:03;4.03;;;0.88;;
42260;SDS011;27926;48.062;7.474;2022-11-20T16:12:28;1.83;;;1.10;;
42260;SDS011;27926;48.062;7.474;2022-11-20T16:15:12;2.28;;;1.10;;
42260;SDS011;27926;48.062;7.474;2022-11-20T16:17:55;3.70;;;1.27;;
42260;SDS011;27926;48.062;7.474;2022-11-20T16:20:19;9.40;;;1.40;;
42260;SDS011;27926;48.062;7.474;2022-11-20T16:22:44;9.90;;;1.52;;
42260;SDS011;27926;48.062;7.474;2022-11-20T16:25:08;5.72;;;1.10;;
42260;SDS011;27926;48.062;7.474;2022-11-20T16:27:33;3.28;;;1.23;;
42260;SDS011;27926;48.062;7.474;2022-11-20T16:29:57;4.45;;;1.17;;
42260;SDS011;27926;48.062;7.474;2022-11-20T16:32:22;5.05;;;1.23;;